createdAt,value
2023-10-23T00:03:56.647Z,102116.59
2023-10-23T00:09:00.597Z,102113.44
2023-10-23T00:14:03.754Z,102095.56
2023-10-23T00:19:07.009Z,102100.38
2023-10-23T00:24:10.216Z,102106.91
2023-10-23T00:29:14.309Z,102112.56
2023-10-23T00:34:17.363Z,102097.00
2023-10-23T00:39:21.118Z,102070.91
2023-10-23T00:44:24.066Z,102056.31
2023-10-23T00:49:27.165Z,102070.75
2023-10-23T00:54:31.301Z,102059.19
2023-10-23T00:59:34.566Z,102071.31
2023-10-23T01:04:38.315Z,102055.38
2023-10-23T01:09:41.615Z,102047.09
2023-10-23T01:14:44.849Z,102066.66
2023-10-23T01:19:48.144Z,102039.88
2023-10-23T01:24:53.382Z,102049.09
2023-10-23T01:29:56.769Z,102036.66
2023-10-23T01:34:59.794Z,102028.72
2023-10-23T01:40:02.840Z,102002.63
2023-10-23T01:45:08.003Z,102002.84
2023-10-23T01:50:11.195Z,102009.34
2023-10-23T01:55:14.249Z,102017.28
2023-10-23T02:00:17.487Z,101999.03
2023-10-23T02:05:20.616Z,101986.22
2023-10-23T02:10:24.758Z,101984.81
2023-10-23T02:15:27.988Z,101982.50
2023-10-23T02:20:31.098Z,101975.97
2023-10-23T02:25:34.012Z,101981.81
2023-10-23T02:30:40.454Z,101973.94
2023-10-23T02:35:45.285Z,101989.97
2023-10-23T02:40:55.544Z,101990.50
2023-10-23T02:46:08.633Z,101957.44
2023-10-23T02:51:11.695Z,101952.72
2023-10-23T02:56:15.092Z,101956.56
2023-10-23T03:01:20.970Z,101934.75
2023-10-23T03:06:24.266Z,101937.06
2023-10-23T03:11:27.576Z,101927.38
2023-10-23T03:16:31.023Z,101926.53
2023-10-23T03:21:34.365Z,101929.25
2023-10-23T03:26:37.351Z,101929.00
2023-10-23T03:31:40.461Z,101928.44
2023-10-23T03:36:43.695Z,101909.63
2023-10-23T03:41:46.793Z,101902.75
2023-10-23T03:46:49.758Z,101889.97
2023-10-23T03:51:52.881Z,101915.19
2023-10-23T03:56:55.860Z,101933.03
2023-10-23T04:01:59.085Z,101918.59
2023-10-23T04:07:02.393Z,101903.47
2023-10-23T04:12:05.953Z,101915.66
2023-10-23T04:17:09.138Z,101912.91
2023-10-23T04:22:12.056Z,101906.44
2023-10-23T04:27:15.302Z,101887.75
2023-10-23T04:32:18.237Z,101892.75
2023-10-23T04:37:21.343Z,101897.16
2023-10-23T04:42:24.384Z,101891.47
2023-10-23T04:47:27.455Z,101871.91
2023-10-23T04:52:30.938Z,101873.66
2023-10-23T04:57:34.094Z,101852.59
2023-10-23T05:02:37.468Z,101851.94
2023-10-23T05:07:40.532Z,101834.72
2023-10-23T05:12:46.312Z,101827.22
2023-10-23T05:17:49.471Z,101842.53
2023-10-23T05:22:52.613Z,101835.81
2023-10-23T05:27:55.504Z,101839.13
2023-10-23T05:32:58.758Z,101827.09
2023-10-23T05:38:02.562Z,101828.31
2023-10-23T05:43:07.093Z,101821.88
2023-10-23T05:48:15.590Z,101819.13
2023-10-23T05:53:28.020Z,101785.97
2023-10-23T05:58:32.339Z,101798.56
2023-10-23T06:03:35.915Z,101827.53
2023-10-23T06:08:39.115Z,101826.53
2023-10-23T06:13:45.206Z,101832.75
2023-10-23T06:18:48.384Z,101853.53
2023-10-23T06:23:51.640Z,101840.88
2023-10-23T06:28:54.581Z,101827.00
2023-10-23T06:33:57.867Z,101781.75
2023-10-23T06:39:01.171Z,101793.44
2023-10-23T06:44:05.386Z,101771.59
2023-10-23T06:49:08.452Z,101757.22
2023-10-23T06:54:11.603Z,101759.03
2023-10-23T06:59:14.931Z,101766.50
2023-10-23T07:04:18.336Z,101760.63
2023-10-23T07:09:21.398Z,101744.81
2023-10-23T07:14:25.075Z,101741.25
2023-10-23T07:19:28.282Z,101723.56
2023-10-23T07:24:31.670Z,101718.28
2023-10-23T07:29:35.338Z,101697.81
2023-10-23T07:34:38.902Z,101697.09
2023-10-23T07:39:47.550Z,101679.44
2023-10-23T07:44:50.867Z,101676.09
2023-10-23T07:49:54.338Z,101661.97
2023-10-23T07:54:57.373Z,101679.97
2023-10-23T08:00:00.583Z,101672.94
2023-10-23T08:05:04.152Z,101664.31
2023-10-23T08:10:08.038Z,101660.69
2023-10-23T08:15:11.626Z,101636.19
2023-10-23T08:20:14.728Z,101627.72
2023-10-23T08:25:18.001Z,101606.25
2023-10-23T08:30:21.882Z,101582.19
2023-10-23T08:35:29.166Z,101560.69
2023-10-23T08:40:33.329Z,101568.13
2023-10-23T08:45:36.442Z,101551.16
2023-10-23T08:50:42.259Z,101548.28
2023-10-23T08:55:46.856Z,101529.72
2023-10-23T09:00:51.971Z,101532.16
2023-10-23T09:05:59.812Z,101512.94
2023-10-23T09:11:08.208Z,101508.09
2023-10-23T09:16:12.515Z,101500.38
2023-10-23T09:21:17.482Z,101468.06
2023-10-23T09:26:24.109Z,101461.19
2023-10-23T09:31:29.022Z,101452.56
2023-10-23T09:36:33.339Z,101453.41
2023-10-23T09:41:37.575Z,101477.53
2023-10-23T09:46:43.939Z,101472.63
2023-10-23T09:51:55.559Z,101452.97
2023-10-23T09:57:05.292Z,101438.22
2023-10-23T10:02:12.455Z,101419.13
2023-10-23T10:07:29.199Z,101398.81
2023-10-23T10:12:36.001Z,101382.75
2023-10-23T10:17:44.625Z,101373.97
2023-10-23T10:22:58.771Z,101365.44
2023-10-23T10:28:10.144Z,101352.09
2023-10-23T10:34:19.391Z,101341.47
2023-10-23T10:38:54.792Z,101327.44
2023-10-23T10:44:01.280Z,101316.22
2023-10-23T10:49:06.055Z,101291.88
2023-10-23T10:54:09.585Z,101295.16
2023-10-23T10:59:15.544Z,101282.31
2023-10-23T11:04:20.793Z,101290.25
2023-10-23T11:09:26.608Z,101267.88
2023-10-23T11:14:30.318Z,101260.50
2023-10-23T11:19:33.825Z,101257.84
2023-10-23T11:24:37.461Z,101243.91
2023-10-23T11:29:46.951Z,101243.94
2023-10-23T11:34:50.502Z,101236.16
2023-10-23T11:39:58.662Z,101204.03
2023-10-23T11:45:02.666Z,101202.91
2023-10-23T11:50:12.388Z,101202.91
2023-10-23T11:55:18.969Z,101207.41
2023-10-23T12:00:24.851Z,101201.47
2023-10-23T12:05:28.640Z,101189.69
2023-10-23T12:10:32.791Z,101199.44
2023-10-23T12:15:36.614Z,101194.63
2023-10-23T12:20:41.265Z,101179.72
2023-10-23T12:25:45.475Z,101167.91
2023-10-23T12:30:49.691Z,101176.31
2023-10-23T12:35:55.303Z,101154.25
2023-10-23T12:41:02.770Z,101165.16
2023-10-23T12:46:06.932Z,101158.47
2023-10-23T12:51:11.742Z,101149.44
2023-10-23T12:56:15.378Z,101148.84
2023-10-23T13:01:20.764Z,101144.72
2023-10-23T13:06:25.833Z,101125.03
2023-10-23T13:11:31.940Z,101131.72
2023-10-23T13:16:36.719Z,101133.19
2023-10-23T13:21:41.835Z,101122.72
2023-10-23T13:26:46.376Z,101114.63
2023-10-23T13:31:51.836Z,101118.38
2023-10-23T13:36:55.758Z,101079.28
2023-10-23T13:41:59.371Z,101076.34
2023-10-23T13:47:03.609Z,101063.44
2023-10-23T13:52:07.963Z,101067.47
2023-10-23T13:57:14.636Z,101063.06
2023-10-23T14:02:24.861Z,101045.19
2023-10-23T14:07:28.718Z,101042.53
2023-10-23T14:12:32.537Z,101035.34
2023-10-23T14:17:37.941Z,101044.22
2023-10-23T14:22:41.959Z,101031.47
2023-10-23T14:27:45.550Z,101012.91
2023-10-23T14:32:49.280Z,101022.13
2023-10-23T14:37:54.470Z,101009.66
2023-10-23T14:42:58.847Z,101014.38
2023-10-23T14:48:02.296Z,101017.19
2023-10-23T14:53:10.377Z,101009.88
2023-10-23T14:58:14.432Z,101011.16
2023-10-23T15:03:18.364Z,100999.03
2023-10-23T15:08:23.001Z,101000.78
2023-10-23T15:13:33.606Z,100981.75
2023-10-23T15:18:38.295Z,100989.28
2023-10-23T15:23:43.654Z,101000.38
2023-10-23T15:28:47.313Z,100992.97
2023-10-23T15:33:51.969Z,101001.50
2023-10-23T15:38:57.465Z,100982.78
2023-10-23T15:44:00.879Z,100952.47
2023-10-23T15:49:04.413Z,100970.88
2023-10-23T15:54:08.285Z,100959.78
2023-10-23T15:59:11.857Z,100957.59
2023-10-23T16:04:16.227Z,100960.25
2023-10-23T16:09:27.924Z,100971.22
2023-10-23T16:14:36.743Z,100922.28
2023-10-23T16:19:49.797Z,100938.66
2023-10-23T16:24:55.895Z,100931.69
2023-10-23T16:29:59.525Z,100932.56
2023-10-23T16:35:04.432Z,100941.81
2023-10-23T16:40:08.735Z,100924.41
2023-10-23T16:45:12.845Z,100915.63
2023-10-23T16:50:16.718Z,100934.16
2023-10-23T16:55:20.715Z,100900.78
2023-10-23T17:00:24.628Z,100915.00
2023-10-23T17:05:29.577Z,100896.44
2023-10-23T17:10:33.283Z,100901.97
2023-10-23T17:15:42.853Z,100889.00
2023-10-23T17:20:46.290Z,100882.09
2023-10-23T17:25:50.956Z,100880.19
2023-10-23T17:30:57.096Z,100886.09
2023-10-23T17:36:01.520Z,100859.13
2023-10-23T17:41:04.987Z,100872.31
2023-10-23T17:46:11.658Z,100850.38
2023-10-23T17:51:17.400Z,100856.25
2023-10-23T17:56:21.166Z,100849.03
2023-10-23T18:01:25.176Z,100867.03
2023-10-23T18:06:28.640Z,100871.53
2023-10-23T18:11:32.632Z,100854.72
2023-10-23T18:16:35.829Z,100861.06
2023-10-23T18:21:40.482Z,100863.28
2023-10-23T18:26:43.933Z,100853.44
2023-10-23T18:31:47.833Z,100847.28
2023-10-23T18:36:51.033Z,100852.56
2023-10-23T18:41:54.490Z,100851.50
2023-10-23T18:46:57.882Z,100850.94
2023-10-23T18:52:01.118Z,100845.47
2023-10-23T18:57:04.775Z,100839.47
2023-10-23T19:02:08.132Z,100845.47
2023-10-23T19:07:11.527Z,100859.63
2023-10-23T19:12:14.857Z,100860.09
2023-10-23T19:17:33.069Z,100852.22
2023-10-23T19:22:43.093Z,100845.09
2023-10-23T19:27:46.382Z,100823.09
2023-10-23T19:32:50.722Z,100820.56
2023-10-23T19:37:54.425Z,100825.81
2023-10-23T19:43:11.021Z,100834.97
2023-10-23T19:48:14.802Z,100802.94
2023-10-23T19:53:18.962Z,100799.84
2023-10-23T19:58:21.787Z,100805.38
2023-10-23T20:03:24.905Z,100810.09
2023-10-23T20:08:30.953Z,100802.09
2023-10-23T20:13:34.036Z,100811.47
2023-10-23T20:18:37.170Z,100792.88
2023-10-23T20:23:40.324Z,100778.72
2023-10-23T20:28:47.179Z,100755.81
2023-10-23T20:33:54.776Z,100768.19
2023-10-23T20:38:58.381Z,100775.66
2023-10-23T20:44:01.500Z,100758.25
2023-10-23T20:49:05.351Z,100761.31
2023-10-23T20:54:08.535Z,100755.44
2023-10-23T20:59:11.522Z,100752.41
2023-10-23T21:04:14.731Z,100733.84
2023-10-23T21:09:18.167Z,100714.50
2023-10-23T21:14:22.880Z,100734.66
2023-10-23T21:19:25.934Z,100734.16
2023-10-23T21:24:29.057Z,100735.34
2023-10-23T21:29:32.719Z,100722.13
2023-10-23T21:34:35.907Z,100718.59
2023-10-23T21:39:39.170Z,100717.47
2023-10-23T21:44:42.467Z,100703.41
2023-10-23T21:49:47.338Z,100712.03
2023-10-23T21:54:50.463Z,100704.84
2023-10-23T21:59:54.092Z,100705.41
2023-10-23T22:04:57.709Z,100707.06
2023-10-23T22:10:00.986Z,100703.78
2023-10-23T22:15:06.916Z,100689.53
2023-10-23T22:20:09.928Z,100699.63
2023-10-23T22:25:13.772Z,100685.66
2023-10-23T22:30:16.774Z,100682.91
2023-10-23T22:35:20.009Z,100667.84
2023-10-23T22:40:23.647Z,100688.69
2023-10-23T22:45:27.497Z,100673.50
2023-10-23T22:50:31.191Z,100669.19
2023-10-23T22:55:35.164Z,100675.78
2023-10-23T23:00:38.689Z,100682.44
2023-10-23T23:05:44.676Z,100671.06
2023-10-23T23:10:47.979Z,100662.81
2023-10-23T23:15:53.246Z,100660.00
2023-10-23T23:20:59.944Z,100656.47
2023-10-23T23:26:03.024Z,100656.00
2023-10-23T23:31:06.933Z,100653.22
2023-10-23T23:36:09.885Z,100654.56
2023-10-23T23:41:13.000Z,100637.53
2023-10-23T23:46:16.157Z,100628.25
2023-10-23T23:51:19.326Z,100640.13
2023-10-23T23:56:22.541Z,100648.63
